sensor_id;sensor_type;location;lat;lon;timestamp;temperature;humidity
16958;DHT22;8595;52.542;11.974;2023-06-24T00:00:48;17.10;99.90
16958;DHT22;8595;52.542;11.974;2023-06-24T00:03:17;17.10;99.90
16958;DHT22;8595;52.542;11.974;2023-06-24T00:05:44;17.10;99.90
16958;DHT22;8595;52.542;11.974;2023-06-24T00:08:16;17.00;99.90
16958;DHT22;8595;52.542;11.974;2023-06-24T00:10:44;17.00;99.90
16958;DHT22;8595;52.542;11.974;2023-06-24T00:13:11;17.00;99.90
16958;DHT22;8595;52.542;11.974;2023-06-24T00:15:38;16.90;99.90
16958;DHT22;8595;52.542;11.974;2023-06-24T00:18:08;16.90;99.90
16958;DHT22;8595;52.542;11.974;2023-06-24T00:20:35;16.90;99.90
16958;DHT22;8595;52.542;11.974;2023-06-24T00:23:02;16.80;99.90
16958;DHT22;8595;52.542;11.974;2023-06-24T00:25:30;16.90;99.90
16958;DHT22;8595;52.542;11.974;2023-06-24T00:27:58;16.90;99.90
16958;DHT22;8595;52.542;11.974;2023-06-24T00:30:26;16.80;99.90
16958;DHT22;8595;52.542;11.974;2023-06-24T00:32:52;16.80;99.90
16958;DHT22;8595;52.542;11.974;2023-06-24T00:35:19;16.70;99.90
16958;DHT22;8595;52.542;11.974;2023-06-24T00:37:46;16.70;99.90
16958;DHT22;8595;52.542;11.974;2023-06-24T00:40:13;16.70;99.90
16958;DHT22;8595;52.542;11.974;2023-06-24T00:42:43;16.60;99.90
16958;DHT22;8595;52.542;11.974;2023-06-24T00:45:11;16.50;99.90
16958;DHT22;8595;52.542;11.974;2023-06-24T00:47:38;16.60;99.90
16958;DHT22;8595;52.542;11.974;2023-06-24T00:50:06;16.50;99.90
16958;DHT22;8595;52.542;11.974;2023-06-24T00:52:33;16.50;99.90
16958;DHT22;8595;52.542;11.974;2023-06-24T00:55:03;16.40;99.90
16958;DHT22;8595;52.542;11.974;2023-06-24T00:57:30;16.30;99.90
16958;DHT22;8595;52.542;11.974;2023-06-24T00:59:59;16.30;99.90
16958;DHT22;8595;52.542;11.974;2023-06-24T01:02:26;16.20;99.90
16958;DHT22;8595;52.542;11.974;2023-06-24T01:04:53;16.20;99.90
16958;DHT22;8595;52.542;11.974;2023-06-24T01:07:20;16.20;99.90
16958;DHT22;8595;52.542;11.974;2023-06-24T01:09:47;16.10;99.90
16958;DHT22;8595;52.542;11.974;2023-06-24T01:12:14;16.10;99.90
16958;DHT22;8595;52.542;11.974;2023-06-24T01:14:41;16.10;99.90
16958;DHT22;8595;52.542;11.974;2023-06-24T01:17:12;15.90;99.90
16958;DHT22;8595;52.542;11.974;2023-06-24T01:19:54;15.90;99.90
16958;DHT22;8595;52.542;11.974;2023-06-24T01:22:36;15.90;99.90
16958;DHT22;8595;52.542;11.974;2023-06-24T01:25:19;15.80;99.90
16958;DHT22;8595;52.542;11.974;2023-06-24T01:28:15;15.80;99.90
16958;DHT22;8595;52.542;11.974;2023-06-24T01:33:53;15.70;99.90
16958;DHT22;8595;52.542;11.974;2023-06-24T01:36:23;15.70;99.90
16958;DHT22;8595;52.542;11.974;2023-06-24T01:38:54;15.70;99.90
16958;DHT22;8595;52.542;11.974;2023-06-24T01:41:24;15.70;99.90
16958;DHT22;8595;52.542;11.974;2023-06-24T01:43:53;15.70;99.90
16958;DHT22;8595;52.542;11.974;2023-06-24T01:46:22;15.60;99.90
16958;DHT22;8595;52.542;11.974;2023-06-24T01:48:55;15.60;99.90
16958;DHT22;8595;52.542;11.974;2023-06-24T01:51:24;15.50;99.90
16958;DHT22;8595;52.542;11.974;2023-06-24T01:53:56;15.50;99.90
16958;DHT22;8595;52.542;11.974;2023-06-24T01:56:26;15.50;99.90
16958;DHT22;8595;52.542;11.974;2023-06-24T01:58:56;15.50;99.90
16958;DHT22;8595;52.542;11.974;2023-06-24T02:01:24;15.50;99.90
16958;DHT22;8595;52.542;11.974;2023-06-24T02:03:53;15.50;99.90
16958;DHT22;8595;52.542;11.974;2023-06-24T02:06:22;15.30;99.90
16958;DHT22;8595;52.542;11.974;2023-06-24T02:08:50;15.20;99.90
16958;DHT22;8595;52.542;11.974;2023-06-24T02:11:19;15.20;99.90
16958;DHT22;8595;52.542;11.974;2023-06-24T02:13:48;15.20;99.90
16958;DHT22;8595;52.542;11.974;2023-06-24T02:16:16;15.10;99.90
16958;DHT22;8595;52.542;11.974;2023-06-24T02:18:44;15.10;99.90
16958;DHT22;8595;52.542;11.974;2023-06-24T02:21:15;15.10;99.90
16958;DHT22;8595;52.542;11.974;2023-06-24T02:23:43;15.00;99.90
16958;DHT22;8595;52.542;11.974;2023-06-24T02:26:11;15.00;99.90
16958;DHT22;8595;52.542;11.974;2023-06-24T02:28:38;14.90;99.90
16958;DHT22;8595;52.542;11.974;2023-06-24T02:31:09;14.90;99.90
16958;DHT22;8595;52.542;11.974;2023-06-24T02:33:36;14.90;99.90
16958;DHT22;8595;52.542;11.974;2023-06-24T02:36:03;14.90;99.90
16958;DHT22;8595;52.542;11.974;2023-06-24T02:38:32;14.80;99.90
16958;DHT22;8595;52.542;11.974;2023-06-24T02:40:59;14.80;99.90
16958;DHT22;8595;52.542;11.974;2023-06-24T02:43:26;14.80;99.90
16958;DHT22;8595;52.542;11.974;2023-06-24T02:45:53;14.80;99.90
16958;DHT22;8595;52.542;11.974;2023-06-24T02:48:21;14.80;99.90
16958;DHT22;8595;52.542;11.974;2023-06-24T02:50:48;14.70;99.90
16958;DHT22;8595;52.542;11.974;2023-06-24T02:53:15;14.80;99.90
16958;DHT22;8595;52.542;11.974;2023-06-24T02:55:44;14.80;99.90
16958;DHT22;8595;52.542;11.974;2023-06-24T02:58:12;14.80;99.90
16958;DHT22;8595;52.542;11.974;2023-06-24T03:00:40;14.90;99.90
16958;DHT22;8595;52.542;11.974;2023-06-24T03:03:07;14.90;99.90
16958;DHT22;8595;52.542;11.974;2023-06-24T03:05:35;14.80;99.90
16958;DHT22;8595;52.542;11.974;2023-06-24T03:08:03;14.80;99.90
16958;DHT22;8595;52.542;11.974;2023-06-24T03:10:30;14.90;99.90
16958;DHT22;8595;52.542;11.974;2023-06-24T03:12:58;14.90;99.90
16958;DHT22;8595;52.542;11.974;2023-06-24T03:15:24;14.90;99.90
16958;DHT22;8595;52.542;11.974;2023-06-24T03:17:52;14.90;99.90
16958;DHT22;8595;52.542;11.974;2023-06-24T03:20:18;15.00;99.90
16958;DHT22;8595;52.542;11.974;2023-06-24T03:22:46;14.90;99.90
16958;DHT22;8595;52.542;11.974;2023-06-24T03:25:13;14.80;99.90
16958;DHT22;8595;52.542;11.974;2023-06-24T03:27:41;14.70;99.90
16958;DHT22;8595;52.542;11.974;2023-06-24T03:30:11;14.70;99.90
16958;DHT22;8595;52.542;11.974;2023-06-24T03:32:40;14.80;99.90
16958;DHT22;8595;52.542;11.974;2023-06-24T03:35:12;14.80;99.90
16958;DHT22;8595;52.542;11.974;2023-06-24T03:37:39;14.80;99.90
16958;DHT22;8595;52.542;11.974;2023-06-24T03:40:07;14.90;99.90
16958;DHT22;8595;52.542;11.974;2023-06-24T03:42:34;15.00;99.90
16958;DHT22;8595;52.542;11.974;2023-06-24T03:45:02;15.00;99.90
16958;DHT22;8595;52.542;11.974;2023-06-24T03:47:30;14.90;99.90
16958;DHT22;8595;52.542;11.974;2023-06-24T03:49:57;14.80;99.90
16958;DHT22;8595;52.542;11.974;2023-06-24T03:52:24;14.80;99.90
16958;DHT22;8595;52.542;11.974;2023-06-24T03:54:50;14.80;99.90
16958;DHT22;8595;52.542;11.974;2023-06-24T03:57:19;14.90;99.90
16958;DHT22;8595;52.542;11.974;2023-06-24T03:59:46;14.80;99.90
16958;DHT22;8595;52.542;11.974;2023-06-24T04:02:13;14.70;99.90
16958;DHT22;8595;52.542;11.974;2023-06-24T04:04:41;14.70;99.90
16958;DHT22;8595;52.542;11.974;2023-06-24T04:07:07;14.60;99.90
16958;DHT22;8595;52.542;11.974;2023-06-24T04:09:34;14.70;99.90
16958;DHT22;8595;52.542;11.974;2023-06-24T04:12:02;14.80;99.90
16958;DHT22;8595;52.542;11.974;2023-06-24T04:14:29;14.80;99.90
16958;DHT22;8595;52.542;11.974;2023-06-24T04:16:55;14.80;99.90
16958;DHT22;8595;52.542;11.974;2023-06-24T04:19:22;14.80;99.90
16958;DHT22;8595;52.542;11.974;2023-06-24T04:21:50;14.80;99.90
16958;DHT22;8595;52.542;11.974;2023-06-24T04:24:17;14.90;99.90
16958;DHT22;8595;52.542;11.974;2023-06-24T04:26:43;14.90;99.90
16958;DHT22;8595;52.542;11.974;2023-06-24T04:29:10;14.90;99.90
16958;DHT22;8595;52.542;11.974;2023-06-24T04:31:37;15.00;99.90
16958;DHT22;8595;52.542;11.974;2023-06-24T04:34:03;15.10;99.90
16958;DHT22;8595;52.542;11.974;2023-06-24T04:36:30;15.10;99.90
16958;DHT22;8595;52.542;11.974;2023-06-24T04:38:58;15.30;99.90
16958;DHT22;8595;52.542;11.974;2023-06-24T04:41:25;15.30;99.90
16958;DHT22;8595;52.542;11.974;2023-06-24T04:43:53;15.40;99.90
16958;DHT22;8595;52.542;11.974;2023-06-24T04:46:20;15.40;99.90
16958;DHT22;8595;52.542;11.974;2023-06-24T04:48:47;15.40;99.90
16958;DHT22;8595;52.542;11.974;2023-06-24T04:51:14;15.60;99.90
16958;DHT22;8595;52.542;11.974;2023-06-24T04:53:41;15.50;99.90
16958;DHT22;8595;52.542;11.974;2023-06-24T04:56:09;15.60;99.90
16958;DHT22;8595;52.542;11.974;2023-06-24T04:58:35;15.70;99.90
16958;DHT22;8595;52.542;11.974;2023-06-24T05:01:02;15.70;99.90
16958;DHT22;8595;52.542;11.974;2023-06-24T05:03:29;15.80;99.90
16958;DHT22;8595;52.542;11.974;2023-06-24T05:05:56;15.80;99.90
16958;DHT22;8595;52.542;11.974;2023-06-24T05:08:22;15.80;99.90
16958;DHT22;8595;52.542;11.974;2023-06-24T05:10:50;15.70;99.90
16958;DHT22;8595;52.542;11.974;2023-06-24T05:13:18;15.80;99.90
16958;DHT22;8595;52.542;11.974;2023-06-24T05:15:45;15.80;99.90
16958;DHT22;8595;52.542;11.974;2023-06-24T05:18:12;15.70;99.90
16958;DHT22;8595;52.542;11.974;2023-06-24T05:20:39;15.90;99.90
16958;DHT22;8595;52.542;11.974;2023-06-24T05:23:05;15.80;99.90
16958;DHT22;8595;52.542;11.974;2023-06-24T05:25:32;16.00;99.90
16958;DHT22;8595;52.542;11.974;2023-06-24T05:28:00;16.20;99.90
16958;DHT22;8595;52.542;11.974;2023-06-24T05:30:28;16.30;99.90
16958;DHT22;8595;52.542;11.974;2023-06-24T05:32:55;16.40;99.90
16958;DHT22;8595;52.542;11.974;2023-06-24T05:35:22;16.40;99.90
16958;DHT22;8595;52.542;11.974;2023-06-24T05:37:49;16.50;99.90
16958;DHT22;8595;52.542;11.974;2023-06-24T05:40:15;16.40;99.90
16958;DHT22;8595;52.542;11.974;2023-06-24T05:42:42;16.50;99.90
16958;DHT22;8595;52.542;11.974;2023-06-24T05:45:10;16.60;99.90
16958;DHT22;8595;52.542;11.974;2023-06-24T05:47:38;16.60;99.90
16958;DHT22;8595;52.542;11.974;2023-06-24T05:50:06;16.60;99.90
16958;DHT22;8595;52.542;11.974;2023-06-24T05:52:32;16.50;99.90
16958;DHT22;8595;52.542;11.974;2023-06-24T05:54:59;16.60;99.90
16958;DHT22;8595;52.542;11.974;2023-06-24T05:57:26;16.50;99.90
16958;DHT22;8595;52.542;11.974;2023-06-24T05:59:53;16.30;99.90
16958;DHT22;8595;52.542;11.974;2023-06-24T06:02:20;16.40;99.90
16958;DHT22;8595;52.542;11.974;2023-06-24T06:04:48;16.40;99.90
16958;DHT22;8595;52.542;11.974;2023-06-24T06:07:15;16.40;99.90
16958;DHT22;8595;52.542;11.974;2023-06-24T06:09:41;16.40;99.90
16958;DHT22;8595;52.542;11.974;2023-06-24T06:12:09;16.30;99.90
16958;DHT22;8595;52.542;11.974;2023-06-24T06:14:36;16.40;99.90
16958;DHT22;8595;52.542;11.974;2023-06-24T06:17:04;16.50;99.90
16958;DHT22;8595;52.542;11.974;2023-06-24T06:19:32;16.50;99.90
16958;DHT22;8595;52.542;11.974;2023-06-24T06:22:01;16.50;99.90
16958;DHT22;8595;52.542;11.974;2023-06-24T06:24:27;16.60;99.90
16958;DHT22;8595;52.542;11.974;2023-06-24T06:26:54;16.60;99.90
16958;DHT22;8595;52.542;11.974;2023-06-24T06:29:21;16.60;99.90
16958;DHT22;8595;52.542;11.974;2023-06-24T06:31:47;16.70;99.90
16958;DHT22;8595;52.542;11.974;2023-06-24T06:34:14;16.80;99.90
16958;DHT22;8595;52.542;11.974;2023-06-24T06:36:41;17.00;99.90
16958;DHT22;8595;52.542;11.974;2023-06-24T06:39:09;17.10;99.90
16958;DHT22;8595;52.542;11.974;2023-06-24T06:41:35;17.10;99.90
16958;DHT22;8595;52.542;11.974;2023-06-24T06:44:02;17.00;99.90
16958;DHT22;8595;52.542;11.974;2023-06-24T06:46:29;17.10;99.90
16958;DHT22;8595;52.542;11.974;2023-06-24T06:48:56;17.10;99.90
16958;DHT22;8595;52.542;11.974;2023-06-24T06:51:23;17.10;99.90
16958;DHT22;8595;52.542;11.974;2023-06-24T06:53:51;17.10;99.90
16958;DHT22;8595;52.542;11.974;2023-06-24T06:56:23;17.30;99.90
16958;DHT22;8595;52.542;11.974;2023-06-24T06:58:50;17.30;99.90
16958;DHT22;8595;52.542;11.974;2023-06-24T07:01:17;17.40;99.90
16958;DHT22;8595;52.542;11.974;2023-06-24T07:03:44;17.50;99.90
16958;DHT22;8595;52.542;11.974;2023-06-24T07:06:11;17.50;99.90
16958;DHT22;8595;52.542;11.974;2023-06-24T07:08:38;17.50;99.90
16958;DHT22;8595;52.542;11.974;2023-06-24T07:11:05;17.60;99.90
16958;DHT22;8595;52.542;11.974;2023-06-24T07:13:33;17.70;99.90
16958;DHT22;8595;52.542;11.974;2023-06-24T07:16:00;17.90;99.90
16958;DHT22;8595;52.542;11.974;2023-06-24T07:18:27;18.00;99.90
16958;DHT22;8595;52.542;11.974;2023-06-24T07:20:56;18.10;99.90
16958;DHT22;8595;52.542;11.974;2023-06-24T07:23:23;17.90;99.90
16958;DHT22;8595;52.542;11.974;2023-06-24T07:25:49;18.00;99.90
16958;DHT22;8595;52.542;11.974;2023-06-24T07:28:16;18.20;99.90
16958;DHT22;8595;52.542;11.974;2023-06-24T07:30:44;18.20;99.90
16958;DHT22;8595;52.542;11.974;2023-06-24T07:33:11;18.30;99.90
16958;DHT22;8595;52.542;11.974;2023-06-24T07:35:38;18.30;99.90
16958;DHT22;8595;52.542;11.974;2023-06-24T07:38:04;18.30;99.90
16958;DHT22;8595;52.542;11.974;2023-06-24T07:40:31;18.00;99.90
16958;DHT22;8595;52.542;11.974;2023-06-24T07:42:58;18.10;99.90
16958;DHT22;8595;52.542;11.974;2023-06-24T07:45:24;18.20;99.90
16958;DHT22;8595;52.542;11.974;2023-06-24T07:47:52;18.40;99.90
16958;DHT22;8595;52.542;11.974;2023-06-24T07:50:19;18.40;99.90
16958;DHT22;8595;52.542;11.974;2023-06-24T07:52:46;18.50;99.90
16958;DHT22;8595;52.542;11.974;2023-06-24T07:55:13;18.50;99.90
16958;DHT22;8595;52.542;11.974;2023-06-24T07:57:39;18.50;99.90
16958;DHT22;8595;52.542;11.974;2023-06-24T08:00:07;18.60;99.90
16958;DHT22;8595;52.542;11.974;2023-06-24T08:02:36;18.80;99.90
16958;DHT22;8595;52.542;11.974;2023-06-24T08:05:05;19.00;99.90
16958;DHT22;8595;52.542;11.974;2023-06-24T08:07:32;19.10;99.90
16958;DHT22;8595;52.542;11.974;2023-06-24T08:09:59;19.20;99.90
16958;DHT22;8595;52.542;11.974;2023-06-24T08:12:25;19.10;99.90
16958;DHT22;8595;52.542;11.974;2023-06-24T08:14:52;19.30;99.90
16958;DHT22;8595;52.542;11.974;2023-06-24T08:17:19;19.30;99.90
16958;DHT22;8595;52.542;11.974;2023-06-24T08:19:46;19.10;99.90
16958;DHT22;8595;52.542;11.974;2023-06-24T08:22:16;19.30;99.90
16958;DHT22;8595;52.542;11.974;2023-06-24T08:24:42;19.50;99.90
16958;DHT22;8595;52.542;11.974;2023-06-24T08:27:09;19.30;99.90
16958;DHT22;8595;52.542;11.974;2023-06-24T08:29:36;19.50;99.90
16958;DHT22;8595;52.542;11.974;2023-06-24T08:32:04;19.50;99.90
16958;DHT22;8595;52.542;11.974;2023-06-24T08:34:32;19.30;99.90
16958;DHT22;8595;52.542;11.974;2023-06-24T08:36:59;19.30;99.90
16958;DHT22;8595;52.542;11.974;2023-06-24T08:39:27;19.30;99.90
16958;DHT22;8595;52.542;11.974;2023-06-24T08:41:53;19.40;99.90
16958;DHT22;8595;52.542;11.974;2023-06-24T08:44:20;19.70;99.90
16958;DHT22;8595;52.542;11.974;2023-06-24T08:46:47;20.00;99.90
16958;DHT22;8595;52.542;11.974;2023-06-24T08:49:21;20.20;99.90
16958;DHT22;8595;52.542;11.974;2023-06-24T08:51:53;20.40;99.90
16958;DHT22;8595;52.542;11.974;2023-06-24T08:54:21;20.50;99.90
16958;DHT22;8595;52.542;11.974;2023-06-24T08:56:50;20.50;99.90
16958;DHT22;8595;52.542;11.974;2023-06-24T08:59:17;20.60;99.90
16958;DHT22;8595;52.542;11.974;2023-06-24T09:01:46;20.60;99.90
16958;DHT22;8595;52.542;11.974;2023-06-24T09:04:13;20.70;99.90
16958;DHT22;8595;52.542;11.974;2023-06-24T09:06:39;20.70;99.90
16958;DHT22;8595;52.542;11.974;2023-06-24T09:09:17;21.10;99.90
16958;DHT22;8595;52.542;11.974;2023-06-24T09:11:52;21.40;99.90
16958;DHT22;8595;52.542;11.974;2023-06-24T09:14:19;21.60;99.90
16958;DHT22;8595;52.542;11.974;2023-06-24T09:16:51;22.00;99.90
16958;DHT22;8595;52.542;11.974;2023-06-24T09:19:20;22.70;99.90
16958;DHT22;8595;52.542;11.974;2023-06-24T09:21:47;23.60;99.90
16958;DHT22;8595;52.542;11.974;2023-06-24T09:24:14;24.30;99.90
16958;DHT22;8595;52.542;11.974;2023-06-24T09:26:43;24.70;99.90
16958;DHT22;8595;52.542;11.974;2023-06-24T09:29:12;24.30;99.90
16958;DHT22;8595;52.542;11.974;2023-06-24T09:31:49;24.50;99.90
16958;DHT22;8595;52.542;11.974;2023-06-24T09:34:19;25.00;99.90
16958;DHT22;8595;52.542;11.974;2023-06-24T09:36:51;25.30;99.90
16958;DHT22;8595;52.542;11.974;2023-06-24T09:39:18;25.70;99.90
16958;DHT22;8595;52.542;11.974;2023-06-24T09:41:48;25.50;99.90
16958;DHT22;8595;52.542;11.974;2023-06-24T09:44:17;25.40;99.90
16958;DHT22;8595;52.542;11.974;2023-06-24T09:46:45;25.70;99.90
16958;DHT22;8595;52.542;11.974;2023-06-24T09:49:12;25.90;99.90
16958;DHT22;8595;52.542;11.974;2023-06-24T09:51:39;26.20;99.90
16958;DHT22;8595;52.542;11.974;2023-06-24T09:54:07;26.40;99.90
16958;DHT22;8595;52.542;11.974;2023-06-24T09:56:35;26.70;99.90
16958;DHT22;8595;52.542;11.974;2023-06-24T09:59:03;26.70;99.90
16958;DHT22;8595;52.542;11.974;2023-06-24T10:01:34;26.70;99.90
16958;DHT22;8595;52.542;11.974;2023-06-24T10:04:02;27.00;99.90
16958;DHT22;8595;52.542;11.974;2023-06-24T10:06:30;26.80;99.90
16958;DHT22;8595;52.542;11.974;2023-06-24T10:08:56;26.50;99.90
16958;DHT22;8595;52.542;11.974;2023-06-24T10:11:24;26.50;99.90
16958;DHT22;8595;52.542;11.974;2023-06-24T10:13:51;26.30;99.90
16958;DHT22;8595;52.542;11.974;2023-06-24T10:16:18;26.90;99.90
16958;DHT22;8595;52.542;11.974;2023-06-24T10:18:46;26.60;99.90
16958;DHT22;8595;52.542;11.974;2023-06-24T10:21:15;26.20;99.90
16958;DHT22;8595;52.542;11.974;2023-06-24T10:23:51;26.50;99.90
16958;DHT22;8595;52.542;11.974;2023-06-24T10:26:22;27.00;99.90
16958;DHT22;8595;52.542;11.974;2023-06-24T10:29:12;27.00;99.90
16958;DHT22;8595;52.542;11.974;2023-06-24T10:32:02;27.60;99.90
16958;DHT22;8595;52.542;11.974;2023-06-24T10:34:41;28.10;99.90
16958;DHT22;8595;52.542;11.974;2023-06-24T10:37:14;28.40;99.90
16958;DHT22;8595;52.542;11.974;2023-06-24T10:39:49;28.60;99.90
16958;DHT22;8595;52.542;11.974;2023-06-24T10:42:33;28.80;99.90
16958;DHT22;8595;52.542;11.974;2023-06-24T10:45:01;29.10;99.90
16958;DHT22;8595;52.542;11.974;2023-06-24T10:47:29;29.00;99.90
16958;DHT22;8595;52.542;11.974;2023-06-24T10:49:57;29.10;99.90
16958;DHT22;8595;52.542;11.974;2023-06-24T10:52:25;28.90;99.90
16958;DHT22;8595;52.542;11.974;2023-06-24T10:54:52;28.90;99.90
16958;DHT22;8595;52.542;11.974;2023-06-24T10:57:23;28.40;99.90
16958;DHT22;8595;52.542;11.974;2023-06-24T10:59:52;27.60;99.90
16958;DHT22;8595;52.542;11.974;2023-06-24T11:02:20;27.70;99.90
16958;DHT22;8595;52.542;11.974;2023-06-24T11:04:48;28.10;99.90
16958;DHT22;8595;52.542;11.974;2023-06-24T11:07:17;28.20;99.90
16958;DHT22;8595;52.542;11.974;2023-06-24T11:09:51;28.40;99.90
16958;DHT22;8595;52.542;11.974;2023-06-24T11:12:18;27.80;99.90
16958;DHT22;8595;52.542;11.974;2023-06-24T11:14:45;27.90;99.90
16958;DHT22;8595;52.542;11.974;2023-06-24T11:17:12;28.20;99.90
16958;DHT22;8595;52.542;11.974;2023-06-24T11:19:38;28.70;99.90
16958;DHT22;8595;52.542;11.974;2023-06-24T11:22:06;28.60;99.90
16958;DHT22;8595;52.542;11.974;2023-06-24T11:24:35;28.90;99.90
16958;DHT22;8595;52.542;11.974;2023-06-24T11:27:04;29.10;99.90
16958;DHT22;8595;52.542;11.974;2023-06-24T11:29:32;29.10;99.90
16958;DHT22;8595;52.542;11.974;2023-06-24T11:32:01;28.50;99.90
16958;DHT22;8595;52.542;11.974;2023-06-24T11:34:28;28.30;99.90
16958;DHT22;8595;52.542;11.974;2023-06-24T11:36:56;28.20;99.90
16958;DHT22;8595;52.542;11.974;2023-06-24T11:39:23;28.50;99.90
16958;DHT22;8595;52.542;11.974;2023-06-24T11:41:52;28.40;99.90
16958;DHT22;8595;52.542;11.974;2023-06-24T11:44:19;28.30;99.90
16958;DHT22;8595;52.542;11.974;2023-06-24T11:46:46;28.00;99.90
16958;DHT22;8595;52.542;11.974;2023-06-24T11:49:13;28.60;99.90
16958;DHT22;8595;52.542;11.974;2023-06-24T11:51:46;29.10;99.90
16958;DHT22;8595;52.542;11.974;2023-06-24T11:54:15;29.10;99.90
16958;DHT22;8595;52.542;11.974;2023-06-24T11:56:44;29.50;99.90
16958;DHT22;8595;52.542;11.974;2023-06-24T11:59:18;29.50;99.90
16958;DHT22;8595;52.542;11.974;2023-06-24T12:01:52;30.00;99.90
16958;DHT22;8595;52.542;11.974;2023-06-24T12:04:18;29.60;99.90
16958;DHT22;8595;52.542;11.974;2023-06-24T12:06:45;29.90;99.90
16958;DHT22;8595;52.542;11.974;2023-06-24T12:09:12;29.60;99.90
16958;DHT22;8595;52.542;11.974;2023-06-24T12:11:39;29.80;99.90
16958;DHT22;8595;52.542;11.974;2023-06-24T12:14:06;29.80;99.90
16958;DHT22;8595;52.542;11.974;2023-06-24T12:16:34;30.00;99.90
16958;DHT22;8595;52.542;11.974;2023-06-24T12:19:00;30.10;99.90
16958;DHT22;8595;52.542;11.974;2023-06-24T12:21:27;30.20;99.90
16958;DHT22;8595;52.542;11.974;2023-06-24T12:23:54;30.70;99.90
16958;DHT22;8595;52.542;11.974;2023-06-24T12:26:20;30.70;99.90
16958;DHT22;8595;52.542;11.974;2023-06-24T12:28:47;30.70;99.90
16958;DHT22;8595;52.542;11.974;2023-06-24T12:31:14;31.20;99.90
16958;DHT22;8595;52.542;11.974;2023-06-24T12:33:42;31.80;99.90
16958;DHT22;8595;52.542;11.974;2023-06-24T12:36:09;31.80;99.90
16958;DHT22;8595;52.542;11.974;2023-06-24T12:38:36;31.80;99.90
16958;DHT22;8595;52.542;11.974;2023-06-24T12:41:04;31.30;99.90
16958;DHT22;8595;52.542;11.974;2023-06-24T12:43:32;31.20;99.90
16958;DHT22;8595;52.542;11.974;2023-06-24T12:45:58;31.00;99.90
16958;DHT22;8595;52.542;11.974;2023-06-24T12:48:25;31.00;99.90
16958;DHT22;8595;52.542;11.974;2023-06-24T12:50:53;30.90;99.90
16958;DHT22;8595;52.542;11.974;2023-06-24T12:53:20;30.70;99.90
16958;DHT22;8595;52.542;11.974;2023-06-24T12:55:47;30.40;99.90
16958;DHT22;8595;52.542;11.974;2023-06-24T12:58:14;30.70;99.90
16958;DHT22;8595;52.542;11.974;2023-06-24T13:00:45;30.80;99.90
16958;DHT22;8595;52.542;11.974;2023-06-24T13:03:12;31.00;99.90
16958;DHT22;8595;52.542;11.974;2023-06-24T13:05:38;31.40;99.90
16958;DHT22;8595;52.542;11.974;2023-06-24T13:08:06;32.10;99.90
16958;DHT22;8595;52.542;11.974;2023-06-24T13:10:36;32.10;99.90
16958;DHT22;8595;52.542;11.974;2023-06-24T13:13:03;31.10;99.90
16958;DHT22;8595;52.542;11.974;2023-06-24T13:15:30;31.30;99.90
16958;DHT22;8595;52.542;11.974;2023-06-24T13:17:57;31.20;99.90
16958;DHT22;8595;52.542;11.974;2023-06-24T13:20:24;31.50;99.90
16958;DHT22;8595;52.542;11.974;2023-06-24T13:22:50;31.40;99.90
16958;DHT22;8595;52.542;11.974;2023-06-24T13:25:19;31.60;99.90
16958;DHT22;8595;52.542;11.974;2023-06-24T13:27:46;31.60;99.90
16958;DHT22;8595;52.542;11.974;2023-06-24T13:30:13;32.30;99.90
16958;DHT22;8595;52.542;11.974;2023-06-24T13:32:41;31.80;99.90
16958;DHT22;8595;52.542;11.974;2023-06-24T13:35:09;31.50;99.90
16958;DHT22;8595;52.542;11.974;2023-06-24T13:37:36;31.80;99.90
16958;DHT22;8595;52.542;11.974;2023-06-24T13:40:05;31.80;99.90
16958;DHT22;8595;52.542;11.974;2023-06-24T13:42:35;32.20;99.90
16958;DHT22;8595;52.542;11.974;2023-06-24T13:45:02;32.00;99.90
16958;DHT22;8595;52.542;11.974;2023-06-24T13:47:29;31.90;99.90
16958;DHT22;8595;52.542;11.974;2023-06-24T13:49:55;32.40;99.90
16958;DHT22;8595;52.542;11.974;2023-06-24T13:52:22;32.30;99.90
16958;DHT22;8595;52.542;11.974;2023-06-24T13:54:49;32.50;99.90
16958;DHT22;8595;52.542;11.974;2023-06-24T13:57:16;31.70;99.90
16958;DHT22;8595;52.542;11.974;2023-06-24T13:59:44;31.80;99.90
16958;DHT22;8595;52.542;11.974;2023-06-24T14:02:11;32.70;99.90
16958;DHT22;8595;52.542;11.974;2023-06-24T14:04:39;32.90;99.90
16958;DHT22;8595;52.542;11.974;2023-06-24T14:07:06;32.30;99.90
16958;DHT22;8595;52.542;11.974;2023-06-24T14:09:33;32.70;99.90
16958;DHT22;8595;52.542;11.974;2023-06-24T14:12:00;32.60;99.90
16958;DHT22;8595;52.542;11.974;2023-06-24T14:14:27;32.80;99.90
16958;DHT22;8595;52.542;11.974;2023-06-24T14:16:55;32.60;99.90
16958;DHT22;8595;52.542;11.974;2023-06-24T14:19:22;31.80;99.90
16958;DHT22;8595;52.542;11.974;2023-06-24T14:21:49;30.70;99.90
16958;DHT22;8595;52.542;11.974;2023-06-24T14:24:15;30.10;99.90
16958;DHT22;8595;52.542;11.974;2023-06-24T14:26:42;29.80;99.90
16958;DHT22;8595;52.542;11.974;2023-06-24T14:29:09;29.80;99.90
16958;DHT22;8595;52.542;11.974;2023-06-24T14:31:36;30.20;99.90
16958;DHT22;8595;52.542;11.974;2023-06-24T14:34:04;30.20;99.90
16958;DHT22;8595;52.542;11.974;2023-06-24T14:36:30;29.80;99.90
16958;DHT22;8595;52.542;11.974;2023-06-24T14:38:57;29.20;99.90
16958;DHT22;8595;52.542;11.974;2023-06-24T14:41:24;29.10;99.90
16958;DHT22;8595;52.542;11.974;2023-06-24T14:43:51;29.00;99.90
16958;DHT22;8595;52.542;11.974;2023-06-24T14:46:17;29.00;99.90
16958;DHT22;8595;52.542;11.974;2023-06-24T14:48:44;29.00;99.90
16958;DHT22;8595;52.542;11.974;2023-06-24T14:51:12;29.40;99.90
16958;DHT22;8595;52.542;11.974;2023-06-24T14:53:39;30.40;99.90
16958;DHT22;8595;52.542;11.974;2023-06-24T14:56:06;30.80;99.90
16958;DHT22;8595;52.542;11.974;2023-06-24T14:58:32;31.30;99.90
16958;DHT22;8595;52.542;11.974;2023-06-24T15:00:59;32.00;99.90
16958;DHT22;8595;52.542;11.974;2023-06-24T15:03:26;32.30;99.90
16958;DHT22;8595;52.542;11.974;2023-06-24T15:05:53;32.80;99.90
16958;DHT22;8595;52.542;11.974;2023-06-24T15:08:21;31.70;99.90
16958;DHT22;8595;52.542;11.974;2023-06-24T15:10:51;31.50;99.90
16958;DHT22;8595;52.542;11.974;2023-06-24T15:13:17;31.70;99.90
16958;DHT22;8595;52.542;11.974;2023-06-24T15:15:44;32.10;99.90
16958;DHT22;8595;52.542;11.974;2023-06-24T15:18:11;32.40;99.90
16958;DHT22;8595;52.542;11.974;2023-06-24T15:20:38;32.60;99.90
16958;DHT22;8595;52.542;11.974;2023-06-24T15:23:04;33.10;99.90
16958;DHT22;8595;52.542;11.974;2023-06-24T15:25:32;33.40;99.90
16958;DHT22;8595;52.542;11.974;2023-06-24T15:28:01;33.60;99.90
16958;DHT22;8595;52.542;11.974;2023-06-24T15:30:28;33.60;99.90
16958;DHT22;8595;52.542;11.974;2023-06-24T15:32:55;33.30;99.90
16958;DHT22;8595;52.542;11.974;2023-06-24T15:35:22;32.20;99.90
16958;DHT22;8595;52.542;11.974;2023-06-24T15:37:48;32.20;99.90